Historyczne dane pomiarowe

Dodano dane terminowe – wersja testowa.

Dane z okresu 1951-2019

Wersja bazy: 1.34 [2019-03-16, lista zmian], aktualizacja planowana na 2019-04-15

Dane meteo z obszaru Polski uzyskane na podstawie danych udostępnionych przez Instytut Meteorologii i Gospodarki Wodnej – Państwowy Instytut Badawczy.

 

Wybierz Datę:    

       

TemperaturaWilgotnośćWiatrCiśnienieOpadyŚniegCzas trwania zjawisk
 Stacja t tx tn tng RH VA  wxwx mslp ppp RRR   cm mm wxwxwxwxwxwxwx
1983-08-14 12.9 18.6 7.6- 85.8- 4.3 2.7---- 3.9------------
1983-08-13 14.9 22.0 12.0- 83.0- 8.0 3.3---- 5.3------------
1983-08-12 19.0 27.9 12.3- 67.8- 2.7 1.3---- 2.4------------
1983-08-11 21.1 29.1 14.6- 68.3- 2.0 1.3---- 0.0------------
1983-08-10 19.6 26.8 10.8- 70.5- 4.3 0.7---- 0.0------------
1983-08-09 18.7 26.5 12.3- 84.3- 4.0 1.3---- 1.3------------
1983-08-08 17.0 24.5 12.8- 89.3- 5.3 1.0---- 0.7------------
1983-08-07 16.5 24.7 13.5- 85.3- 7.0 0.7---- 5.0------------
1983-08-06 15.3 21.0 12.1- 79.0- 5.3 1.0---- 3.5------------
1983-08-05 13.3 18.4 9.5- 77.0- 5.7 3.3---- 0.0------------
1983-08-04 11.7 17.8 10.8- 86.0- 8.0 3.3---- 6.6------------
1983-08-03 19.1 24.7 16.4- 80.8- 6.7 1.3---- 0.7------------
1983-08-02 19.9 28.3 14.8- 75.3- 7.0 1.7---- 6.9------------
1983-08-01 20.1 29.3 7.2- 54.5- 0.3 5.0---- 0.0------------
1983-07-31 17.3 24.9 6.8- 66.5- 0.0 1.0---- 0.0------------
1983-07-30 17.9 24.9 15.2- 74.0- 5.0 4.7---- 0.0------------
1983-07-29 19.1 25.8 11.6- 66.8- 4.0 3.3---- 2.4------------
1983-07-28 22.9 29.1 17.5- 61.3- 4.7 4.0---- 0.0------------
1983-07-27 22.9 33.4 12.6- 60.5- 1.3 0.3---- 0.0------------
1983-07-26 20.4 29.2 12.1- 67.3- 1.3 2.3---- 0.0------------
1983-07-25 14.6 21.9 7.2- 79.3- 7.0 2.0---- 0.1------------
1983-07-24 15.9 21.3 14.0- 90.8- 7.7 0.3---- 0.6------------
1983-07-23 17.3 23.2 12.8- 77.5- 5.7 4.0---- 0.0------------
1983-07-22 12.1 16.5 8.9- 88.0- 8.0 4.0---- 1.3------------
1983-07-21 13.5 17.7 10.7- 68.8- 4.0 4.7---- 0.0------------
1983-07-20 15.1 24.4 11.4- 89.5- 7.3 2.3---- 7.3------------
1983-07-19 23.1 29.3 16.7- 65.5- 4.3 1.7---- 9.1------------
1983-07-18 21.5 31.8 9.8- 66.0- 2.0 2.7---- 0.0------------
1983-07-17 20.5 27.8 15.2- 68.8- 4.0 1.3---- 0.0------------
1983-07-16 20.7 29.6 10.6- 69.0- 4.7 1.7---- 0.0------------
1983-07-15 18.3 26.2 9.8- 70.0- 2.0 1.0---- 0.0------------
1983-07-14 18.9 24.4 16.0- 85.3- 6.0 2.0---- 0.9------------
1983-07-13 19.5 27.9 15.1- 79.5- 6.3 3.0---- 12.3------------
1983-07-12 19.8 25.8 15.6- 79.0- 7.0 3.0---- 0.0------------
1983-07-11 19.8 26.8 15.1- 77.5- 7.3 1.0---- 2.5------------
1983-07-10 22.2 30.4 11.5- 58.8- 2.7 1.0---- 0.0------------
1983-07-09 19.9 29.0 9.2- 62.3- 1.3 1.0---- 0.0------------
1983-07-08 20.3 28.3 7.6- 52.3- 0.0 1.3---- 0.0------------
1983-07-07 21.8 29.8 11.8- 61.0- 0.0 1.0---- 0.0------------
1983-07-06 20.8 29.8 9.0- 60.5- 0.0 0.3---- 0.0------------
1983-07-05 19.2 26.5 11.7- 68.5- 2.0 1.0---- 0.0------------
1983-07-04 19.5 27.3 9.8- 67.5- 3.3 0.3---- 0.0------------
1983-07-03 17.8 24.9 8.9- 67.5- 3.0 0.0---- 0.0------------
1983-07-02 18.3 23.9 13.1- 73.3- 4.0 3.3---- 0.0------------
1983-07-01 18.5 26.4 9.5- 74.8- 1.7 0.7---- 0.0------------
1983-06-30 14.7 23.4 5.4- 75.0- 0.3 1.0---- 0.0------------
1983-06-29 13.6 21.0 6.4- 66.5- 1.3 1.7---- 0.0------------
1983-06-28 16.1 19.4 15.0- 80.3- 7.0 1.7---- 1.1------------
1983-06-27 19.1 27.8 12.7- 77.8- 7.7 2.0---- 28.4------------
1983-06-26 20.0 26.6 15.4- 73.8- 5.0 1.0---- 0.0------------
1983-06-25 20.8 29.2 15.3- 65.5- 3.0 1.7---- 1.6------------
1983-06-24 16.5 27.1 3.5- 59.3- 0.0 0.3---- 0.0------------
1983-06-23 13.7 21.9 2.8- 63.0- 0.0 1.7---- 0.0------------
1983-06-22 15.4 23.2 9.7- 54.8- 0.0 3.0---- 0.0------------
1983-06-21 18.3 25.8 9.4- 66.5- 1.0 1.0---- 0.0------------
1983-06-20 18.9 23.9 15.5- 79.5- 4.7 1.3---- 0.1------------
1983-06-19 14.5 19.0 12.6- 94.3- 7.7 2.3---- 0.2------------
1983-06-18 12.3 14.8 10.0- 88.5- 8.0 3.0---- 10.1------------
1983-06-17 11.5 16.7 8.0- 84.5- 7.7 3.7---- 4.8------------
1983-06-16 12.5 16.5 10.4- 78.0- 8.0 2.7---- 0.0------------
312.0 ms

 

Źródłem pochodzenia danych jest Instytut Meteorologii i Gospodarki Wodnej – Państwowy Instytut Badawczy. Dane Instytutu Meteorologii i Gospodarki Wodnej – Państwowego Instytutu Badawczego zostały przetworzone.

Dane źródłowe można odnaleźć na stronie https://dane.imgw.pl